Liguori, MO (63057)

12:47 CST le 08 février 2016 (GMT -0600)
Olde Mill Estates | | Change Station
CLOSE
Current Station
Stations météorologiques personnelles
Location: Byrnes Mill, MO
Altitude: 568 ft
Stations météo à proximité

Alt. 568 ft 38.43 °N, 90.57 °W | Updated 6 seconds ago

Couvert
Couvert
27.1 ° F
Paraît 27 ° F
N
0.0
Vent Variable Vent de Nord
Gusts 0.0 mph

Aujourd'hui
Haut(e) -- | Bas -- ° F
--% Risque de précip.
Hier
Haut(e) -- | Bas -- ° F
Precip. -- pouce
Pression 29.92 pouce
Visibilité 8.0 Miles terrestres
Nuages Couvert 3300 ft
Refroidissement éolien 27 ° F
Point de rosée 10 ° F
Humidité 48%
Précipitations 0.00 pouce
Profondeur de la couche neigeuse Non disponible.
7:01 AM 5:32 PM
Nouvelle lune, 0% visible
METAR KSUS 081754Z 29020G27KT 8SM -SN OVC033 M03/M09 A2990 RMK AO2 PK WND 30031/1659 SNB24 SLP131 P0000 60000 T10281089 10011 21028 51013
Pression 29.92 pouce
Visibilité 8.0 Miles terrestres
Nuages Couvert 3300 ft
Refroidissement éolien 27 ° F
Point de rosée 10 ° F
Humidité 48%
Précipitations 0.00 pouce
Profondeur de la couche neigeuse Non disponible.
7:01 AM 5:32 PM
Nouvelle lune, 0% visible
METAR KSUS 081754Z 29020G27KT 8SM -SN OVC033 M03/M09 A2990 RMK AO2 PK WND 30031/1659 SNB24 SLP131 P0000 60000 T10281089 10011 21028 51013

10-Day Weather Forecast

Almanac

Astronomie

Feb. 08, 2016 Lever Coucher
Temps réel
Crépuscule civil
Crépuscule nautique
Crépuscule astronomique
Lune
Durée de lumière visible
Longueur du jour
Tomorrow will be .
, % of the Moon is Illuminated

Extrêmes aujourd'hui

State Highs State Lows

Community

WunderPhotos

Upload Photos

1,891,481 Photos téléchargées !

WunderBlog® & News

Nearby

Qualité de l'air

  Qualité de l'air Indice de la qualité de l'air Polluant
Not available.

Épaisseur de neige

Station Depth Altitude

Activité sismique

Ville Distance Mag. Time & Date
Minimum magnitude displayed is 2.5.

Températures des eaux côtières

Lieu Température

Stations

Stations météo à proximité

Emplacement de la station Température Refroidissement éolien Point de rosée Humidité Vent Precip. Alt. Mise à jour Type
                   

Watches & Warnings

There are currently no watches in effect.